Time;durP1;ratioP1;P1;durP2;ratioP2;P2;SDS_P1;SDS_P2;PMS_P1;PMS_P2;Temp;Humidity;BMP_temperature;BMP_pressure;BME280_temperature;BME280_humidity;BME280_pressure;Samples;Min_cycle;Max_cycle;Signal;HPM_P1;HPM_P2
2023/11/15 00:00:40;;;;;;;13.43;5.68;;;9.30;99.90;;;8.54;100.00;98759.47;5018302;28;20037;-80
2023/11/15 00:03:07;;;;;;;12.75;5.32;;;9.30;99.90;;;8.59;100.00;98761.44;5016230;28;20041;-79
2023/11/15 00:05:32;;;;;;;16.08;5.28;;;9.30;99.90;;;8.53;100.00;98771.41;5015332;28;20101;-80
2023/11/15 00:07:59;;;;;;;8.60;4.78;;;9.40;99.90;;;8.55;100.00;98782.84;5013953;28;20092;-80
2023/11/15 00:10:26;;;;;;;14.40;5.35;;;9.40;99.90;;;8.59;100.00;98802.22;5036160;28;20112;-81
2023/11/15 00:12:52;;;;;;;10.60;5.38;;;9.40;99.90;;;8.48;100.00;98798.47;5019643;28;20376;-79
2023/11/15 00:15:18;;;;;;;14.30;5.45;;;9.30;99.90;;;8.48;100.00;98804.72;5020408;28;20049;-80
2023/11/15 00:17:44;;;;;;;12.07;5.13;;;9.30;99.90;;;8.54;100.00;98830.13;5020919;28;20566;-78
2023/11/15 00:20:13;;;;;;;17.60;5.80;;;9.30;99.90;;;8.60;100.00;98850.06;5017867;28;20068;-78
2023/11/15 00:22:40;;;;;;;15.73;5.68;;;9.30;99.90;;;8.59;100.00;98864.72;5014976;28;20054;-80
2023/11/15 00:25:07;;;;;;;12.73;5.03;;;9.30;99.90;;;8.61;100.00;98879.69;5025022;28;20538;-79
2023/11/15 00:27:33;;;;;;;11.88;5.38;;;9.30;99.90;;;8.60;100.00;98882.69;5015026;28;20149;-80
2023/11/15 00:30:00;;;;;;;13.05;4.82;;;9.30;99.90;;;8.48;100.00;98902.56;5029442;28;20060;-78
2023/11/15 00:32:26;;;;;;;13.32;5.03;;;9.30;99.90;;;8.53;100.00;98920.09;5021830;28;20041;-78
2023/11/15 00:34:53;;;;;;;11.70;4.57;;;9.30;99.90;;;8.59;100.00;98949.00;5015187;28;20033;-80
2023/11/15 00:37:19;;;;;;;14.90;5.05;;;9.30;99.90;;;8.56;100.00;98957.63;5015110;28;20045;-78
2023/11/15 00:39:45;;;;;;;14.52;5.22;;;9.20;99.90;;;8.60;100.00;98972.38;5030115;28;20038;-79
2023/11/15 00:42:11;;;;;;;11.88;4.63;;;9.20;99.90;;;8.52;100.00;98972.78;5018056;28;20034;-80
2023/11/15 00:44:38;;;;;;;14.60;4.72;;;9.20;99.90;;;8.52;100.00;98994.53;5013750;28;20037;-80
2023/11/15 00:47:05;;;;;;;13.27;5.25;;;9.20;99.90;;;8.56;100.00;99014.72;5021704;28;20057;-81
2023/11/15 00:49:32;;;;;;;14.30;5.03;;;9.20;99.90;;;8.58;100.00;99015.31;5032632;28;20034;-80
2023/11/15 00:51:58;;;;;;;12.52;4.85;;;9.30;99.90;;;8.61;100.00;99036.56;5014807;28;20160;-80
2023/11/15 00:54:25;;;;;;;10.57;4.55;;;9.30;99.90;;;8.60;100.00;99046.59;5021228;28;20049;-79
2023/11/15 00:56:51;;;;;;;12.40;4.72;;;9.30;99.90;;;8.63;100.00;99048.00;5019104;28;20390;-79
2023/11/15 00:59:22;;;;;;;9.82;4.60;;;9.30;99.90;;;8.58;100.00;99047.91;5013896;28;20603;-79
2023/11/15 01:01:57;;;;;;;16.50;4.53;;;9.30;99.90;;;8.52;100.00;99055.16;5020703;28;20115;-81
2023/11/15 01:04:25;;;;;;;12.30;4.70;;;9.30;99.90;;;8.55;100.00;99067.44;5022583;28;20470;-80
2023/11/15 01:06:51;;;;;;;11.68;4.05;;;9.30;99.90;;;8.60;100.00;99087.38;5013239;28;20029;-81
2023/11/15 01:09:17;;;;;;;14.32;4.03;;;9.30;99.90;;;8.63;100.00;99111.38;5016776;28;20033;-80
2023/11/15 01:11:44;;;;;;;11.27;3.88;;;9.30;99.90;;;8.66;100.00;99120.94;5014598;28;20030;-80
2023/11/15 01:14:11;;;;;;;10.73;3.85;;;9.30;99.90;;;8.64;100.00;99177.44;5013041;28;20108;-81
2023/11/15 01:16:37;;;;;;;12.88;3.75;;;9.30;99.90;;;8.68;100.00;99205.78;5018217;28;20045;-80
2023/11/15 01:19:03;;;;;;;10.90;3.10;;;9.40;99.90;;;8.71;100.00;99234.41;5016028;28;20109;-79
2023/11/15 01:21:29;;;;;;;7.93;2.90;;;9.40;99.90;;;8.70;100.00;99247.16;5016543;28;20116;-79
2023/11/15 01:23:55;;;;;;;10.32;3.00;;;9.40;99.90;;;8.71;100.00;99281.44;5017806;28;20065;-80
2023/11/15 01:26:21;;;;;;;10.45;3.22;;;9.40;99.90;;;8.76;100.00;99288.91;5027661;28;20036;-79
2023/11/15 01:28:47;;;;;;;11.45;3.05;;;9.40;99.90;;;8.76;100.00;99316.09;5012536;28;20038;-80
2023/11/15 01:31:13;;;;;;;12.63;3.17;;;9.40;99.90;;;8.70;100.00;99327.91;5012801;28;20036;-81
2023/11/15 01:33:42;;;;;;;11.32;3.58;;;9.40;99.90;;;8.73;100.00;99343.75;5017245;28;20042;-80
2023/11/15 01:36:09;;;;;;;7.70;2.80;;;9.40;99.90;;;8.67;100.00;99331.13;5024337;28;20105;-80
2023/11/15 01:38:36;;;;;;;12.52;3.42;;;9.40;99.90;;;8.69;100.00;99354.25;5032323;28;20485;-80
2023/11/15 01:41:04;;;;;;;11.05;3.17;;;9.40;99.90;;;8.58;100.00;99346.94;5012971;28;20030;-80
2023/11/15 01:43:30;;;;;;;9.68;3.17;;;9.40;99.90;;;8.61;100.00;99347.28;5015986;28;20038;-79
2023/11/15 01:45:55;;;;;;;7.30;3.05;;;9.30;99.90;;;8.51;100.00;99335.38;5021750;28;20048;-82
2023/11/15 01:48:21;;;;;;;13.18;3.40;;;9.30;99.90;;;8.55;100.00;99325.66;5022401;28;20574;-80
2023/11/15 01:50:47;;;;;;;8.00;3.35;;;9.20;99.90;;;8.44;100.00;99308.25;5017496;28;20048;-80
2023/11/15 01:53:15;;;;;;;8.13;3.17;;;9.20;99.90;;;8.51;100.00;99302.75;5023154;28;20504;-81
2023/11/15 01:55:43;;;;;;;8.00;3.50;;;9.20;99.90;;;8.48;100.00;99288.50;5012466;28;20104;-81
2023/11/15 01:58:09;;;;;;;10.45;3.58;;;9.20;99.90;;;8.48;100.00;99291.22;5019845;28;20072;-80
2023/11/15 02:00:35;;;;;;;10.30;2.95;;;9.20;99.90;;;8.43;100.00;99277.53;4980826;28;1028390;-80
2023/11/15 02:03:01;;;;;;;11.63;2.75;;;9.10;99.90;;;8.46;100.00;99290.63;5016917;28;20478;-80
2023/11/15 02:05:27;;;;;;;13.27;4.13;;;9.20;99.90;;;8.51;100.00;99297.31;5017971;28;20048;-81
2023/11/15 02:07:53;;;;;;;11.98;3.78;;;9.20;99.90;;;8.39;100.00;99297.28;5020818;28;20045;-80
2023/11/15 02:10:20;;;;;;;11.00;3.22;;;9.10;99.90;;;8.41;100.00;99292.44;5018837;28;20404;-80
2023/11/15 02:12:47;;;;;;;9.65;2.90;;;9.10;99.90;;;8.39;100.00;99287.22;5019532;28;20456;-80
2023/11/15 02:15:15;;;;;;;9.52;3.10;;;9.10;99.90;;;8.40;100.00;99294.31;5019150;28;20034;-80
2023/11/15 02:17:43;;;;;;;9.68;3.22;;;9.10;99.90;;;8.43;100.00;99301.16;5022371;28;20504;-80
2023/11/15 02:20:10;;;;;;;8.32;2.22;;;9.10;99.90;;;8.43;100.00;99314.75;5023252;28;20091;-81
2023/11/15 02:22:45;;;;;;;11.20;3.30;;;9.10;99.90;;;8.33;100.00;99312.63;5027809;28;20045;-77
2023/11/15 02:25:13;;;;;;;8.02;3.80;;;9.10;99.90;;;8.37;100.00;99335.53;5018395;28;20045;-79
2023/11/15 02:27:39;;;;;;;7.82;2.80;;;9.10;99.90;;;8.42;100.00;99346.53;5017188;28;20026;-78
2023/11/15 02:30:08;;;;;;;8.20;2.60;;;9.20;99.90;;;8.39;100.00;99367.94;5016874;28;20041;-78
2023/11/15 02:32:38;;;;;;;6.82;2.20;;;9.10;99.90;;;8.42;100.00;99381.06;5037806;28;20377;-78
2023/11/15 02:35:07;;;;;;;10.10;3.00;;;9.10;99.90;;;8.35;100.00;99382.00;5039998;28;20051;-77
2023/11/15 02:37:36;;;;;;;8.60;2.70;;;9.10;99.90;;;8.24;100.00;99384.69;5012317;28;20036;-77
2023/11/15 02:40:05;;;;;;;9.13;2.67;;;9.20;99.90;;;8.43;100.00;99407.97;5019383;28;20052;-78
2023/11/15 02:42:34;;;;;;;6.63;2.72;;;9.20;99.90;;;8.38;100.00;99428.78;5021456;28;20046;-78
2023/11/15 02:45:00;;;;;;;9.15;2.70;;;9.20;99.90;;;8.47;100.00;99435.53;5013075;28;20438;-79
2023/11/15 02:47:27;;;;;;;7.35;2.78;;;9.20;99.90;;;8.37;100.00;99463.28;5013883;28;20144;-78
2023/11/15 02:49:53;;;;;;;8.65;3.17;;;9.20;99.90;;;8.42;100.00;99459.88;5012431;28;20418;-78
2023/11/15 02:52:20;;;;;;;10.57;3.03;;;9.20;99.90;;;8.48;100.00;99461.66;5019972;28;20060;-78
2023/11/15 02:54:47;;;;;;;11.48;3.22;;;9.20;99.90;;;8.43;100.00;99475.13;5012480;28;20068;-78
2023/11/15 02:57:13;;;;;;;10.27;3.07;;;9.10;99.90;;;8.44;100.00;99487.66;5011343;28;20085;-78
2023/11/15 02:59:39;;;;;;;10.82;3.47;;;9.20;99.90;;;8.41;100.00;99501.69;5016672;28;20437;-77
2023/11/15 03:02:04;;;;;;;8.95;4.28;;;9.20;99.90;;;8.40;100.00;99505.47;5022688;28;20078;-77
2023/11/15 03:04:30;;;;;;;7.50;3.50;;;9.20;99.90;;;8.43;100.00;99516.69;5018700;28;20441;-78
2023/11/15 03:06:56;;;;;;;8.73;3.45;;;9.20;99.90;;;8.39;100.00;99515.50;5020319;28;20038;-77
2023/11/15 03:09:22;;;;;;;8.93;3.40;;;9.20;99.90;;;8.44;100.00;99526.50;5020638;28;20383;-78
2023/11/15 03:11:48;;;;;;;10.27;3.78;;;9.20;99.90;;;8.48;100.00;99533.13;5016135;28;20045;-78
2023/11/15 03:14:14;;;;;;;7.47;3.17;;;9.20;99.90;;;8.34;100.00;99535.22;5017750;28;20030;-79
2023/11/15 03:16:40;;;;;;;9.07;3.67;;;9.20;99.90;;;8.38;100.00;99541.03;5011988;28;20045;-79
2023/11/15 03:19:07;;;;;;;8.50;3.70;;;9.20;99.90;;;8.35;100.00;99534.19;5027437;28;20068;-78
2023/11/15 03:21:34;;;;;;;4.30;1.80;;;9.20;99.90;;;8.07;100.00;99553.75;5022287;28;20033;-78
2023/11/15 03:24:00;;;;;;;3.28;1.63;;;8.90;99.90;;;7.69;100.00;99561.03;5017430;28;20045;-80
2023/11/15 03:26:26;;;;;;;5.00;1.80;;;8.70;99.90;;;7.66;100.00;99564.22;5022459;28;20537;-79
2023/11/15 03:28:52;;;;;;;4.90;1.63;;;8.50;99.90;;;7.56;100.00;99553.88;5017595;28;20042;-79
2023/11/15 03:31:17;;;;;;;3.38;1.40;;;8.50;99.90;;;7.48;100.00;99541.41;5038384;28;20048;-79
2023/11/15 03:33:44;;;;;;;2.35;1.20;;;8.40;99.90;;;7.28;100.00;99522.59;5023960;28;20042;-79
2023/11/15 03:36:10;;;;;;;3.80;1.98;;;8.20;99.90;;;7.27;100.00;99495.69;5011836;28;20034;-79
2023/11/15 03:38:37;;;;;;;4.50;1.58;;;8.20;99.90;;;7.24;100.00;99483.41;5014589;28;20508;-79
2023/11/15 03:41:03;;;;;;;3.10;1.48;;;8.10;99.90;;;7.11;100.00;99465.38;5017419;28;20038;-78
2023/11/15 03:43:29;;;;;;;3.60;1.50;;;8.10;99.90;;;7.09;100.00;99461.22;5008382;28;20465;-80
2023/11/15 03:45:54;;;;;;;6.28;1.90;;;8.00;99.90;;;7.06;100.00;99448.94;5014911;28;20045;-79
2023/11/15 03:48:22;;;;;;;4.18;1.40;;;8.00;99.90;;;7.02;100.00;99434.16;5012787;28;20096;-81
2023/11/15 03:50:47;;;;;;;7.68;2.30;;;7.90;99.90;;;7.01;100.00;99438.75;5017367;28;20106;-79
2023/11/15 03:53:13;;;;;;;5.15;1.88;;;7.90;99.90;;;7.08;100.00;99438.72;5021743;28;20469;-79
2023/11/15 03:55:39;;;;;;;16.23;3.47;;;7.90;99.90;;;7.10;100.00;99425.75;5026124;28;20029;-80
2023/11/15 03:58:04;;;;;;;12.75;3.17;;;7.90;99.90;;;7.09;100.00;99434.09;5025930;28;20445;-78
2023/11/15 04:00:31;;;;;;;7.15;2.50;;;7.90;99.90;;;7.10;100.00;99427.63;5025657;28;20045;-79
2023/11/15 04:02:57;;;;;;;13.48;3.30;;;7.90;99.90;;;7.14;100.00;99418.81;5036277;28;20111;-79
2023/11/15 04:05:22;;;;;;;12.20;3.15;;;8.00;99.90;;;7.18;100.00;99422.75;5014535;28;20489;-79
2023/11/15 04:07:48;;;;;;;8.48;2.90;;;8.00;99.90;;;7.10;100.00;99414.06;5011512;28;20096;-78
2023/11/15 04:10:14;;;;;;;19.98;4.35;;;7.90;99.90;;;7.10;100.00;99401.34;5017743;28;20034;-80
2023/11/15 04:12:41;;;;;;;6.85;2.72;;;8.00;99.90;;;7.11;100.00;99400.28;5016472;28;20029;-79
2023/11/15 04:15:09;;;;;;;10.00;2.65;;;7.90;99.90;;;7.13;100.00;99405.47;5026201;28;20036;-79
2023/11/15 04:17:35;;;;;;;9.73;2.47;;;7.90;99.90;;;7.16;100.00;99405.00;5010383;28;20048;-79
2023/11/15 04:20:04;;;;;;;9.07;3.10;;;8.00;99.90;;;7.10;100.00;99408.63;5010623;28;20045;-79
2023/11/15 04:22:30;;;;;;;7.03;2.30;;;8.00;99.90;;;7.16;100.00;99424.00;5011425;28;20026;-80
2023/11/15 04:24:56;;;;;;;7.88;2.53;;;8.00;99.90;;;7.25;100.00;99435.41;5019458;28;20497;-80
2023/11/15 04:27:22;;;;;;;4.15;2.40;;;8.00;99.90;;;7.22;100.00;99439.41;5015860;28;20041;-79
2023/11/15 04:29:47;;;;;;;7.07;2.58;;;8.00;99.90;;;7.18;100.00;99447.16;5012299;28;20095;-80
2023/11/15 04:32:13;;;;;;;9.55;2.85;;;8.00;99.90;;;7.16;100.00;99445.69;5013855;28;20038;-79
2023/11/15 04:34:39;;;;;;;5.60;2.70;;;8.00;99.90;;;7.15;100.00;99454.91;5013073;28;20026;-79
2023/11/15 04:37:05;;;;;;;5.47;2.55;;;7.90;99.90;;;7.15;100.00;99458.44;5013951;28;20101;-80
2023/11/15 04:39:30;;;;;;;6.25;2.78;;;7.90;99.90;;;7.09;100.00;99451.22;5011168;28;20044;-79
2023/11/15 04:41:56;;;;;;;5.40;2.45;;;7.90;99.90;;;7.10;100.00;99457.44;5012200;28;20049;-79
2023/11/15 04:44:23;;;;;;;5.32;2.65;;;7.90;99.90;;;7.03;100.00;99447.50;5015637;28;20038;-79
2023/11/15 04:46:49;;;;;;;9.35;2.53;;;7.90;99.90;;;7.07;100.00;99458.75;5016213;28;20060;-79
2023/11/15 04:49:15;;;;;;;6.70;3.05;;;7.80;99.90;;;7.03;100.00;99447.50;5018132;28;20053;-80
2023/11/15 04:51:40;;;;;;;5.05;2.40;;;7.80;99.90;;;6.94;100.00;99446.13;5021088;28;20036;-78
2023/11/15 04:54:06;;;;;;;7.50;2.58;;;7.80;99.90;;;7.01;100.00;99433.34;5018576;28;20437;-80
2023/11/15 04:56:34;;;;;;;5.32;2.80;;;7.80;99.90;;;6.91;100.00;99441.97;5020985;28;20462;-79
2023/11/15 04:59:01;;;;;;;7.38;2.60;;;7.70;99.90;;;6.97;100.00;99431.28;5018188;28;20037;-79
2023/11/15 05:01:26;;;;;;;7.88;2.70;;;7.70;99.90;;;6.97;100.00;99432.13;5025163;28;20037;-79
2023/11/15 05:03:52;;;;;;;6.40;2.30;;;7.70;99.90;;;7.01;100.00;99433.34;5014472;28;20397;-79
2023/11/15 05:06:18;;;;;;;7.10;2.50;;;7.70;99.90;;;7.00;100.00;99430.84;5019343;28;20183;-80
2023/11/15 05:08:44;;;;;;;6.13;3.03;;;7.70;99.90;;;6.95;100.00;99420.69;5018465;28;20052;-80
2023/11/15 05:11:10;;;;;;;8.45;3.50;;;7.70;99.90;;;7.00;100.00;99436.25;5019551;28;20090;-80
2023/11/15 05:13:35;;;;;;;8.50;3.50;;;7.70;99.90;;;7.03;100.00;99436.66;5019312;28;20030;-82
2023/11/15 05:16:03;;;;;;;8.45;3.63;;;7.70;99.90;;;7.04;100.00;99445.63;5032041;28;20674;-82
2023/11/15 05:18:30;;;;;;;11.05;4.20;;;7.70;99.90;;;7.01;100.00;99448.78;5027769;28;20033;-82
2023/11/15 05:20:55;;;;;;;11.02;4.70;;;7.80;99.90;;;6.95;100.00;99447.78;5025170;28;20378;-83
2023/11/15 05:23:21;;;;;;;11.63;4.88;;;7.70;99.90;;;6.98;100.00;99450.06;5021862;28;20049;-82
2023/11/15 05:25:47;;;;;;;9.32;5.07;;;7.70;99.90;;;7.06;100.00;99457.09;5023633;28;20056;-81
2023/11/15 05:28:13;;;;;;;11.43;5.05;;;7.70;99.90;;;6.96;100.00;99444.03;5022751;28;20044;-84
2023/11/15 05:30:40;;;;;;;11.55;5.40;;;7.80;99.90;;;6.91;100.00;99446.59;5020100;28;20034;-87
2023/11/15 05:33:06;;;;;;;10.73;4.97;;;7.80;99.90;;;7.09;100.00;99442.22;5019898;28;20051;-85
2023/11/15 05:35:32;;;;;;;11.25;5.35;;;7.70;99.90;;;7.02;100.00;99439.56;5014777;28;20541;-83
2023/11/15 05:37:58;;;;;;;7.78;5.18;;;7.70;99.90;;;7.03;100.00;99431.22;5022299;28;20038;-84
2023/11/15 05:40:23;;;;;;;12.63;5.32;;;7.70;99.90;;;7.07;100.00;99447.06;5026495;28;20036;-84
2023/11/15 05:42:49;;;;;;;12.35;5.80;;;7.70;99.90;;;7.07;100.00;99444.34;5014499;28;20470;-83
2023/11/15 05:45:15;;;;;;;11.25;5.75;;;7.70;99.90;;;7.17;100.00;99469.09;5015000;28;20041;-85
2023/11/15 05:47:41;;;;;;;12.80;5.57;;;7.70;99.90;;;7.10;100.00;99455.59;5021259;28;20080;-86
2023/11/15 05:50:09;;;;;;;9.75;5.15;;;7.70;99.90;;;7.19;100.00;99467.78;5034058;28;20432;-84
2023/11/15 05:52:39;;;;;;;10.25;5.28;;;7.70;99.90;;;7.18;100.00;99473.47;5020168;28;20038;-84
2023/11/15 05:55:07;;;;;;;9.73;5.05;;;7.70;99.90;;;7.16;100.00;99472.81;5019467;28;20045;-83
2023/11/15 05:57:33;;;;;;;10.07;5.50;;;7.70;99.90;;;7.19;100.00;99480.56;5016996;28;20513;-84
2023/11/15 06:00:00;;;;;;;11.70;5.60;;;7.70;99.90;;;7.15;100.00;99479.31;5017665;28;20081;-83
2023/11/15 06:02:26;;;;;;;8.85;4.70;;;7.70;99.90;;;7.11;100.00;99469.97;5018195;28;20037;-83
2023/11/15 06:04:56;;;;;;;9.05;5.55;;;7.70;99.90;;;7.16;100.00;99478.25;5028956;28;20038;-83
2023/11/15 06:07:25;;;;;;;9.70;5.28;;;7.70;99.90;;;7.20;100.00;99482.22;5022754;28;20038;-84
2023/11/15 06:09:51;;;;;;;15.75;5.90;;;7.70;99.90;;;7.17;100.00;99469.09;5035050;28;20038;-82
2023/11/15 06:12:19;;;;;;;12.80;5.63;;;7.80;99.90;;;7.15;100.00;99465.75;5000748;28;20627;-82
2023/11/15 06:14:47;;;;;;;;;;;7.80;99.90;;;7.19;100.00;99475.94;5020095;28;20037;-81
2023/11/15 06:17:13;;;;;;;16.45;5.43;;;7.80;99.90;;;7.20;100.00;99472.16;5026717;28;19971;-80
2023/11/15 06:19:38;;;;;;;9.63;5.20;;;7.80;99.90;;;7.24;100.00;99458.16;5028992;28;20029;-80
2023/11/15 06:22:04;;;;;;;13.45;6.03;;;7.90;99.90;;;7.25;100.00;99466.09;5026694;28;20477;-80
2023/11/15 06:24:31;;;;;;;10.82;5.78;;;7.90;99.90;;;7.31;100.00;99467.06;5028457;28;20037;-81
2023/11/15 06:26:57;;;;;;;16.55;6.45;;;7.90;99.90;;;7.27;100.00;99469.41;5019270;28;20089;-81
2023/11/15 06:29:23;;;;;;;13.40;6.10;;;7.90;99.90;;;7.30;100.00;99465.41;5016870;28;20482;-80
2023/11/15 06:31:48;;;;;;;12.55;6.00;;;7.90;99.90;;;7.22;100.00;99466.53;5013687;28;20044;-81
2023/11/15 06:34:14;;;;;;;15.30;6.38;;;7.90;99.90;;;7.11;100.00;99451.81;5015746;28;20038;-80
2023/11/15 06:36:44;;;;;;;13.18;6.35;;;7.90;99.90;;;7.30;100.00;99489.84;5019701;28;20045;-81
2023/11/15 06:39:12;;;;;;;13.15;6.28;;;7.90;99.90;;;7.26;100.00;99494.03;5013348;28;20034;-79
2023/11/15 06:41:39;;;;;;;15.63;7.32;;;7.80;99.90;;;7.19;100.00;99496.81;5018458;28;20128;-79
2023/11/15 06:44:09;;;;;;;15.23;7.57;;;7.80;99.90;;;7.15;100.00;99506.44;5017423;28;20092;-79
2023/11/15 06:46:39;;;;;;;16.33;8.00;;;7.80;99.90;;;7.10;100.00;99514.41;5019012;28;20470;-78
2023/11/15 06:49:10;;;;;;;16.38;7.75;;;7.70;99.90;;;7.06;100.00;99524.88;5018811;28;20052;-81
2023/11/15 06:51:37;;;;;;;17.77;7.82;;;7.60;99.90;;;7.03;100.00;99523.44;5017894;28;20041;-80
2023/11/15 06:54:03;;;;;;;16.50;6.68;;;7.70;99.90;;;7.00;100.00;99532.03;5012454;28;20486;-81
2023/11/15 06:56:29;;;;;;;17.08;7.82;;;7.60;99.90;;;7.02;100.00;99550.75;5019574;28;20065;-81
2023/11/15 06:58:55;;;;;;;13.75;7.32;;;7.60;99.90;;;7.02;100.00;99554.31;5016614;28;20060;-81
2023/11/15 07:01:21;;;;;;;15.60;6.32;;;7.60;99.90;;;6.81;100.00;99531.13;5017997;28;20069;-81
2023/11/15 07:03:49;;;;;;;15.32;5.45;;;7.60;99.90;;;6.96;100.00;99546.22;5021261;28;20520;-81
2023/11/15 07:06:15;;;;;;;10.52;4.82;;;7.60;99.90;;;7.04;100.00;99552.22;5013412;28;20069;-80
2023/11/15 07:08:41;;;;;;;12.68;4.93;;;7.70;99.90;;;6.96;100.00;99560.63;5018771;28;20037;-79
2023/11/15 07:11:10;;;;;;;13.07;5.07;;;7.70;99.90;;;6.92;100.00;99559.41;5013164;28;20038;-79
2023/11/15 07:13:36;;;;;;;13.05;5.65;;;7.70;99.90;;;6.96;100.00;99563.34;5023338;28;20033;-79
2023/11/15 07:16:07;;;;;;;12.45;6.15;;;7.70;99.90;;;7.08;100.00;99563.47;5026157;28;20049;-80
2023/11/15 07:18:33;;;;;;;11.38;6.05;;;7.70;99.90;;;7.05;100.00;99574.75;5022986;28;20037;-79
2023/11/15 07:21:00;;;;;;;13.43;5.85;;;7.80;99.90;;;7.18;100.00;99579.25;5009764;28;20052;-79
2023/11/15 07:23:26;;;;;;;10.43;5.78;;;7.80;99.90;;;7.16;100.00;99589.47;5025373;28;20028;-80
2023/11/15 07:25:56;;;;;;;12.50;6.50;;;7.90;99.90;;;7.15;100.00;99587.81;5026446;28;20404;-80
2023/11/15 07:28:25;;;;;;;15.70;7.53;;;7.90;99.90;;;7.15;100.00;99591.38;5028040;28;20392;-80
2023/11/15 07:30:51;;;;;;;11.70;6.40;;;7.90;99.90;;;7.29;100.00;99602.94;5026875;28;20404;-80
2023/11/15 07:33:20;;;;;;;15.90;6.53;;;7.90;99.90;;;7.26;100.00;99613.41;5022719;28;20038;-80
2023/11/15 07:35:47;;;;;;;14.40;6.75;;;7.90;99.90;;;7.26;100.00;99619.66;5028001;28;20041;-80
2023/11/15 07:38:13;;;;;;;13.20;5.82;;;7.90;99.90;;;7.27;100.00;99628.63;5020237;28;20049;-78
2023/11/15 07:40:40;;;;;;;14.82;6.00;;;7.90;99.90;;;7.28;100.00;99635.72;5012749;28;20044;-80
2023/11/15 07:43:06;;;;;;;13.20;5.97;;;7.80;99.90;;;7.28;100.00;99639.28;5012964;28;20045;-79
2023/11/15 07:45:35;;;;;;;14.45;5.10;;;7.80;99.90;;;7.34;100.00;99634.84;5012813;28;20034;-83
2023/11/15 07:48:05;;;;;;;13.32;5.20;;;7.90;99.90;;;7.42;100.00;99633.72;5016792;28;20048;-79
2023/11/15 07:50:34;;;;;;;10.40;5.60;;;8.00;99.90;;;7.50;100.00;99644.34;5017858;28;20034;-78
2023/11/15 07:53:00;;;;;;;17.63;5.68;;;8.00;99.90;;;7.60;100.00;99654.69;5016592;28;20425;-78
2023/11/15 07:55:26;;;;;;;14.43;6.30;;;8.10;99.90;;;7.64;100.00;99658.63;5020384;28;20116;-79
2023/11/15 07:57:52;;;;;;;15.45;6.00;;;8.20;99.90;;;7.74;100.00;99671.69;5020898;28;20172;-82
2023/11/15 08:00:25;;;;;;;12.82;5.85;;;8.20;99.90;;;7.78;100.00;99675.63;5012618;28;20100;-81
2023/11/15 08:02:55;;;;;;;14.27;6.10;;;8.30;99.90;;;7.76;100.00;99688.59;5019000;28;20060;-83
2023/11/15 08:05:24;;;;;;;13.52;5.95;;;8.30;99.90;;;7.77;100.00;99690.25;5019771;28;20033;-82
2023/11/15 08:07:52;;;;;;;10.77;5.65;;;8.40;99.90;;;7.69;100.00;99679.66;5017080;28;20482;-82
2023/11/15 08:10:19;;;;;;;12.25;5.85;;;8.40;99.90;;;7.85;100.00;99698.13;5022626;28;20045;-82
2023/11/15 08:12:49;;;;;;;12.25;6.15;;;8.40;99.90;;;7.95;100.00;99718.50;5012580;28;20044;-82
2023/11/15 08:15:16;;;;;;;13.15;6.50;;;8.40;99.90;;;7.95;100.00;99726.66;5033024;28;20053;-81
2023/11/15 08:17:48;;;;;;;14.18;7.22;;;8.50;99.90;;;7.92;100.00;99727.94;5015470;28;20116;-81
2023/11/15 08:20:14;;;;;;;16.98;7.07;;;8.40;99.90;;;7.77;100.00;99722.84;5012316;28;20052;-82
2023/11/15 08:22:40;;;;;;;14.82;6.40;;;8.50;99.90;;;7.84;100.00;99725.50;5018245;28;20401;-79
2023/11/15 08:25:10;;;;;;;16.63;7.38;;;8.50;99.90;;;7.98;100.00;99745.25;5016804;28;20037;-82
2023/11/15 08:27:38;;;;;;;13.82;7.03;;;8.50;99.90;;;7.93;100.00;99737.75;5016572;28;20034;-80
2023/11/15 08:30:10;;;;;;;18.13;7.53;;;8.50;99.90;;;8.06;100.00;99744.97;5028632;28;20117;-80
2023/11/15 08:32:36;;;;;;;12.13;6.53;;;8.60;99.90;;;8.04;100.00;99745.16;5022813;28;20103;-79
2023/11/15 08:35:02;;;;;;;13.80;7.13;;;8.60;99.90;;;8.06;100.00;99732.19;5021604;28;20366;-80
2023/11/15 08:37:27;;;;;;;16.92;8.10;;;8.70;99.90;;;8.11;100.00;99745.13;5022790;28;20037;-80
2023/11/15 08:39:53;;;;;;;14.88;7.60;;;8.70;99.90;;;8.15;100.00;99746.31;5029930;28;20045;-81
2023/11/15 08:42:19;;;;;;;18.02;7.15;;;8.70;99.90;;;8.19;100.00;99736.69;5025296;28;20065;-81
2023/11/15 08:44:47;;;;;;;15.60;6.95;;;8.80;99.90;;;8.18;100.00;99743.16;5024694;28;20050;-80
2023/11/15 08:47:13;;;;;;;13.00;6.70;;;8.80;99.90;;;8.32;100.00;99751.19;5033299;28;20044;-79
2023/11/15 08:49:39;;;;;;;16.83;7.47;;;8.80;99.90;;;8.32;100.00;99745.78;5022408;28;20363;-81
2023/11/15 08:52:05;;;;;;;14.43;7.13;;;8.90;99.90;;;8.24;100.00;99743.34;5025727;28;20041;-81
2023/11/15 08:54:31;;;;;;;17.77;7.75;;;8.90;99.90;;;8.39;100.00;99757.41;5029651;28;20389;-81
2023/11/15 08:56:56;;;;;;;16.17;7.30;;;9.00;99.90;;;8.48;100.00;99758.75;5021606;28;20034;-81
2023/11/15 08:59:29;;;;;;;14.57;7.25;;;9.10;99.90;;;8.58;100.00;99776.50;5015619;28;20038;-81
2023/11/15 09:01:54;;;;;;;16.95;7.57;;;9.20;99.90;;;8.72;100.00;99775.28;5017189;28;20084;-81
2023/11/15 09:04:20;;;;;;;15.80;7.45;;;9.30;99.90;;;8.83;100.00;99795.44;5025091;28;20061;-81
2023/11/15 09:06:49;;;;;;;14.70;6.80;;;9.30;99.90;;;8.88;100.00;99830.16;5019436;28;20133;-81
2023/11/15 09:09:15;;;;;;;11.63;6.95;;;9.30;99.90;;;8.87;100.00;99837.47;5019067;28;20033;-79
2023/11/15 09:11:41;;;;;;;14.07;6.65;;;9.40;99.90;;;8.92;100.00;99872.16;5014962;28;20046;-79
2023/11/15 09:14:08;;;;;;;13.20;6.30;;;9.40;99.90;;;8.88;100.00;99890.00;5009312;28;20461;-80
2023/11/15 09:16:34;;;;;;;13.80;6.55;;;9.30;99.90;;;8.90;100.00;99902.31;5015285;28;20570;-78
2023/11/15 09:19:04;;;;;;;13.52;6.45;;;9.30;99.90;;;8.90;100.00;99926.81;5014931;28;20030;-79
2023/11/15 09:21:33;;;;;;;13.65;5.90;;;9.40;99.90;;;8.87;100.00;99927.22;5014738;28;20038;-78
2023/11/15 09:24:00;;;;;;;11.75;6.15;;;9.30;99.90;;;8.96;100.00;99935.94;5019306;28;20091;-78
2023/11/15 09:26:26;;;;;;;14.95;7.03;;;9.40;99.90;;;8.90;100.00;99958.59;5018246;28;20042;-78
2023/11/15 09:28:53;;;;;;;16.40;6.82;;;9.40;99.90;;;8.85;100.00;99958.44;5014877;28;20382;-78
2023/11/15 09:31:19;;;;;;;15.15;6.05;;;9.40;99.90;;;8.93;100.00;99947.28;5021440;28;20453;-81
2023/11/15 09:33:45;;;;;;;12.40;6.18;;;9.50;99.90;;;8.97;100.00;99972.97;5020824;28;20116;-81
2023/11/15 09:36:12;;;;;;;10.98;6.03;;;9.40;99.90;;;8.85;100.00;99986.47;5015875;28;20038;-80
2023/11/15 09:38:39;;;;;;;12.27;6.75;;;9.30;99.90;;;8.84;100.00;99987.53;5022785;28;20073;-81
2023/11/15 09:41:13;;;;;;;9.80;5.60;;;9.30;99.90;;;8.89;100.00;99992.31;5042896;28;20041;-80
2023/11/15 09:43:42;;;;;;;9.88;5.40;;;9.30;99.90;;;8.87;100.00;99986.25;5030882;28;20049;-81
2023/11/15 09:46:12;;;;;;;10.18;5.30;;;9.40;99.90;;;8.90;100.00;99989.38;5028964;28;20049;-81
2023/11/15 09:48:43;;;;;;;10.98;5.40;;;9.40;99.90;;;9.08;100.00;99993.19;5031040;28;20041;-81
2023/11/15 09:51:12;;;;;;;15.60;5.70;;;9.50;99.90;;;8.92;100.00;99989.97;5028744;28;20045;-81
2023/11/15 09:53:38;;;;;;;8.93;4.82;;;9.50;99.90;;;9.05;100.00;100005.38;5023574;28;20135;-82
2023/11/15 09:56:07;;;;;;;7.78;4.90;;;9.50;99.90;;;9.03;100.00;100010.19;5015216;28;20048;-81
2023/11/15 09:58:35;;;;;;;8.95;4.78;;;9.50;99.90;;;9.09;100.00;100021.25;5016038;28;20584;-82
2023/11/15 10:01:02;;;;;;;;;;;9.50;99.90;;;9.09;100.00;100023.97;5015206;28;20100;-81
2023/11/15 10:03:28;;;;;;;9.85;5.05;;;9.60;99.90;;;8.89;100.00;100024.94;5015575;28;19921;-82
2023/11/15 10:05:59;;;;;;;11.95;5.45;;;9.50;99.90;;;8.92;100.00;100021.78;5015361;28;20042;-81
2023/11/15 10:08:26;;;;;;;8.90;5.00;;;9.50;99.90;;;9.09;100.00;100013.91;5021010;28;20461;-81
2023/11/15 10:11:08;;;;;;;12.85;4.75;;;9.60;99.90;;;9.03;100.00;100040.13;5024355;28;20052;-82
2023/11/15 10:13:38;;;;;;;7.72;4.20;;;9.70;99.90;;;9.09;100.00;100043.81;5020928;28;20145;-81
2023/11/15 10:16:22;;;;;;;10.00;4.97;;;9.70;99.90;;;9.09;100.00;100070.22;5023953;28;20048;-82
2023/11/15 10:18:48;;;;;;;9.90;5.25;;;9.70;99.90;;;9.11;100.00;100079.81;5032050;28;20038;-82
2023/11/15 10:21:15;;;;;;;11.15;5.43;;;9.80;99.90;;;9.67;100.00;100069.06;5013900;28;20133;-83